Terminal Aerodrome Forecast
Issued by NWS Brownsville, TX

Home | Current Version | Previous Version | Text Only | Print | Product List | Glossary On
Versions: 1 2 3 4 5 6 7 8 9 10 11 12 13 14 15 16 17 18 19
000
FTUS44 KBRO 180813 AAA
TAFBRO
TAF AMD
KBRO 180813Z 1808/1906 VRB03KT 6SM BR OVC010
     FM181600 17010KT P6SM OVC030
     FM182100 12008KT P6SM OVC040=

USA.gov is the U.S. government's official web portal to all federal, state and local government web resources and services.